Time;durP1;ratioP1;P1;durP2;ratioP2;P2;SDS_P1;SDS_P2;PMS_P1;PMS_P2;Temp;Humidity;BMP_temperature;BMP_pressure;BME280_temperature;BME280_humidity;BME280_pressure;Samples;Min_cycle;Max_cycle;Signal;HPM_P1;HPM_P2
2022/08/26 00:01:31;;;;;;;14.63;7.55;;;18.50;99.90;;;;;;5078648;28;20116;-52
2022/08/26 00:04:00;;;;;;;9.00;6.35;;;18.50;99.90;;;;;;5083114;28;20063;-49
2022/08/26 00:06:30;;;;;;;13.73;7.93;;;18.40;99.90;;;;;;5084148;28;20062;-50
2022/08/26 00:08:57;;;;;;;13.43;8.30;;;18.40;99.90;;;;;;5092639;28;20578;-47
2022/08/26 00:11:24;;;;;;;13.13;7.38;;;18.30;99.90;;;;;;5093503;28;20040;-50
2022/08/26 00:13:53;;;;;;;14.88;7.90;;;18.20;99.90;;;;;;5084975;28;20051;-51
2022/08/26 00:16:22;;;;;;;13.38;7.97;;;18.10;99.90;;;;;;5072938;28;20576;-50
2022/08/26 00:18:49;;;;;;;13.55;7.30;;;18.00;99.90;;;;;;5072663;28;20382;-52
2022/08/26 00:21:16;;;;;;;12.75;6.97;;;17.90;99.90;;;;;;5075867;28;20036;-49
2022/08/26 00:23:43;;;;;;;11.77;7.35;;;17.80;99.90;;;;;;5084675;28;20491;-50
2022/08/26 00:26:11;;;;;;;13.98;7.28;;;17.80;99.90;;;;;;5073672;28;20470;-52
2022/08/26 00:28:38;;;;;;;12.25;7.65;;;17.80;99.90;;;;;;5072853;28;20520;-51
2022/08/26 00:31:06;;;;;;;10.18;7.78;;;17.80;99.90;;;;;;5072752;28;20044;-49
2022/08/26 00:33:37;;;;;;;13.35;8.13;;;17.70;99.90;;;;;;5072331;28;20078;-50
2022/08/26 00:36:05;;;;;;;14.77;7.20;;;17.70;99.90;;;;;;5072347;28;20094;-48
2022/08/26 00:38:34;;;;;;;15.05;7.63;;;17.70;99.90;;;;;;5073314;28;20033;-47
2022/08/26 00:41:04;;;;;;;12.27;6.93;;;17.60;99.90;;;;;;5072745;28;20059;-49
2022/08/26 00:43:33;;;;;;;20.50;9.57;;;17.50;99.90;;;;;;5072438;28;20470;-48
2022/08/26 00:46:18;;;;;;;11.73;7.70;;;17.50;99.90;;;;;;5073074;28;20040;-47
2022/08/26 00:48:48;;;;;;;12.27;7.93;;;17.40;99.90;;;;;;5081940;28;20036;-50
2022/08/26 00:51:21;;;;;;;11.90;7.68;;;17.50;99.90;;;;;;5073603;28;20036;-48
2022/08/26 00:54:04;;;;;;;12.98;7.80;;;17.50;99.90;;;;;;5071987;28;20214;-50
2022/08/26 00:56:39;;;;;;;13.40;8.25;;;17.50;99.90;;;;;;5072321;28;20086;-48
2022/08/26 00:59:10;;;;;;;12.88;7.45;;;17.40;99.90;;;;;;5080762;28;20464;-48
2022/08/26 01:01:39;;;;;;;13.65;7.10;;;17.50;99.90;;;;;;5077982;28;20048;-48
2022/08/26 01:04:08;;;;;;;19.33;8.30;;;17.40;99.90;;;;;;5067301;28;20049;-47
2022/08/26 01:06:35;;;;;;;12.70;7.32;;;17.40;99.90;;;;;;5070262;28;20052;-48
2022/08/26 01:09:03;;;;;;;13.10;7.53;;;17.40;99.90;;;;;;5072788;28;20041;-48
2022/08/26 01:11:30;;;;;;;14.77;8.30;;;17.30;99.90;;;;;;5085012;28;21352;-49
2022/08/26 01:14:01;;;;;;;10.90;7.93;;;17.30;99.90;;;;;;5078933;28;20044;-48
2022/08/26 01:16:28;;;;;;;12.25;7.85;;;17.30;99.90;;;;;;5071641;28;20051;-47
2022/08/26 01:19:08;;;;;;;10.40;7.38;;;17.30;99.90;;;;;;5072248;28;20044;-47
2022/08/26 01:21:47;;;;;;;11.52;6.95;;;17.30;99.90;;;;;;5071838;28;20036;-47
2022/08/26 01:24:14;;;;;;;10.55;6.80;;;17.30;99.90;;;;;;5072154;28;20439;-48
2022/08/26 01:26:41;;;;;;;;;;;17.50;99.90;;;;;;5071959;28;20516;-48
2022/08/26 01:29:13;;;;;;;9.80;6.63;;;17.50;99.90;;;;;;5071966;28;19973;-48
2022/08/26 01:31:47;;;;;;;13.07;7.15;;;17.50;99.90;;;;;;5072120;28;20059;-48
2022/08/26 01:34:18;;;;;;;15.20;7.22;;;17.50;99.90;;;;;;5070608;28;20443;-47
2022/08/26 01:36:48;;;;;;;10.43;7.15;;;17.50;99.90;;;;;;5079793;28;20385;-48
2022/08/26 01:39:18;;;;;;;10.75;7.13;;;17.40;99.90;;;;;;5072184;28;20040;-48
2022/08/26 01:41:46;;;;;;;9.93;6.43;;;17.40;99.90;;;;;;5071501;28;20094;-48
2022/08/26 01:44:22;;;;;;;14.52;7.20;;;17.30;99.90;;;;;;5071699;28;20110;-47
2022/08/26 01:46:51;;;;;;;13.70;7.38;;;17.40;99.90;;;;;;5071784;28;20044;-48
2022/08/26 01:49:20;;;;;;;11.43;7.45;;;17.40;99.90;;;;;;5071908;28;20397;-47
2022/08/26 01:51:49;;;;;;;12.70;7.75;;;17.40;99.90;;;;;;5070323;28;20106;-48
2022/08/26 01:54:16;;;;;;;10.95;6.97;;;17.40;99.90;;;;;;5071530;28;20045;-49
2022/08/26 01:56:46;;;;;;;11.73;7.68;;;17.40;99.90;;;;;;5071901;28;20370;-48
2022/08/26 01:59:17;;;;;;;10.20;7.75;;;17.40;99.90;;;;;;5071291;28;20040;-47
2022/08/26 02:01:46;;;;;;;16.98;7.35;;;17.40;99.90;;;;;;5071279;28;20084;-47
2022/08/26 02:04:32;;;;;;;11.63;7.07;;;17.30;99.90;;;;;;5070777;28;20102;-48
2022/08/26 02:07:02;;;;;;;9.40;6.75;;;17.30;99.90;;;;;;5071352;28;20131;-48
2022/08/26 02:09:29;;;;;;;10.05;6.55;;;17.40;99.90;;;;;;5070474;28;20094;-48
2022/08/26 02:11:59;;;;;;;11.80;7.45;;;17.40;99.90;;;;;;5071306;28;20041;-47
2022/08/26 02:14:36;;;;;;;12.23;7.63;;;17.20;99.90;;;;;;5071304;28;20044;-48
2022/08/26 02:17:10;;;;;;;12.05;6.57;;;17.00;99.90;;;;;;5070980;28;20094;-47
2022/08/26 02:19:43;;;;;;;15.00;8.02;;;16.80;99.90;;;;;;5071647;28;20040;-48
2022/08/26 02:22:15;;;;;;;12.45;7.70;;;16.60;99.90;;;;;;5071281;28;20037;-48
2022/08/26 02:24:53;;;;;;;11.27;7.85;;;16.50;99.90;;;;;;5070195;28;20102;-50
2022/08/26 02:27:25;;;;;;;;;;;16.40;99.90;;;;;;5072248;28;20051;-48
2022/08/26 02:30:05;;;;;;;15.23;8.02;;;16.40;99.90;;;;;;5084621;28;19991;-48
2022/08/26 02:32:32;;;;;;;14.20;8.23;;;16.40;99.90;;;;;;5070895;28;20037;-49
2022/08/26 02:35:00;;;;;;;12.50;8.05;;;16.40;99.90;;;;;;5070715;28;20536;-48
2022/08/26 02:37:29;;;;;;;11.65;7.45;;;16.40;99.90;;;;;;5071283;28;20047;-49
2022/08/26 02:39:57;;;;;;;11.63;8.00;;;16.30;99.90;;;;;;5071030;28;20040;-48
2022/08/26 02:42:24;;;;;;;11.13;7.32;;;16.40;99.90;;;;;;5070748;28;20040;-51
2022/08/26 02:44:51;;;;;;;9.98;7.45;;;16.30;99.90;;;;;;5070783;28;20098;-47
2022/08/26 02:47:17;;;;;;;17.83;7.82;;;16.30;99.90;;;;;;5071931;28;20041;-49
2022/08/26 02:49:44;;;;;;;9.52;7.45;;;16.30;99.90;;;;;;5085828;28;20059;-49
2022/08/26 02:52:13;;;;;;;12.73;7.20;;;16.30;99.90;;;;;;5074185;28;20048;-48
2022/08/26 02:54:40;;;;;;;;;;;16.30;99.90;;;;;;5070892;28;20045;-49
2022/08/26 02:57:08;;;;;;;11.25;7.65;;;16.30;99.90;;;;;;5070408;28;19974;-48
2022/08/26 02:59:34;;;;;;;12.70;6.95;;;16.30;99.90;;;;;;5070694;28;20094;-48
2022/08/26 03:02:02;;;;;;;12.40;7.72;;;16.30;99.90;;;;;;5069305;28;20048;-50
2022/08/26 03:04:29;;;;;;;12.05;7.47;;;16.30;99.90;;;;;;5056471;28;21732;-48
2022/08/26 03:06:58;;;;;;;11.73;7.53;;;16.20;99.90;;;;;;5090521;28;20109;-48
2022/08/26 03:09:26;;;;;;;9.88;7.35;;;16.30;99.90;;;;;;5091834;28;20048;-48
2022/08/26 03:11:54;;;;;;;9.52;7.22;;;16.20;99.90;;;;;;5094035;28;20040;-50
2022/08/26 03:14:22;;;;;;;12.25;7.10;;;16.20;99.90;;;;;;5093961;28;20044;-49
2022/08/26 03:16:51;;;;;;;14.55;7.40;;;16.20;99.90;;;;;;5090245;28;20036;-50
2022/08/26 03:19:18;;;;;;;12.90;7.55;;;16.20;99.90;;;;;;5094675;28;20054;-48
2022/08/26 03:21:45;;;;;;;10.35;6.93;;;16.20;99.90;;;;;;5094244;28;20047;-50
2022/08/26 03:24:14;;;;;;;13.40;7.07;;;16.20;99.90;;;;;;5083654;28;20447;-50
2022/08/26 03:26:41;;;;;;;14.52;7.50;;;16.10;99.90;;;;;;5079102;28;20162;-49
2022/08/26 03:32:05;;;;;;;14.18;7.45;;;16.10;99.90;;;;;;5093097;28;20487;-49
2022/08/26 03:34:32;;;;;;;11.63;6.50;;;16.10;99.90;;;;;;5082048;28;20086;-48
2022/08/26 03:36:58;;;;;;;13.18;7.57;;;15.90;99.90;;;;;;5089219;28;20036;-45
2022/08/26 03:39:26;;;;;;;18.02;7.20;;;15.80;99.90;;;;;;5126101;22;20044;-48
2022/08/26 03:41:57;;;;;;;15.68;7.97;;;15.60;99.90;;;;;;5110653;28;20035;-49
2022/08/26 03:44:24;;;;;;;17.15;7.82;;;15.60;99.90;;;;;;5114309;28;20044;-47
2022/08/26 03:46:52;;;;;;;12.80;7.80;;;15.60;99.90;;;;;;5113801;28;20044;-50
2022/08/26 03:49:19;;;;;;;9.48;6.53;;;15.70;99.90;;;;;;5096853;28;20515;-49
2022/08/26 03:51:46;;;;;;;11.27;7.60;;;15.70;99.90;;;;;;5086671;28;20041;-47
2022/08/26 03:54:13;;;;;;;12.10;7.85;;;15.70;99.90;;;;;;5073395;28;20443;-50
2022/08/26 03:56:39;;;;;;;11.60;8.07;;;15.70;99.90;;;;;;5073954;28;20044;-51
2022/08/26 03:59:07;;;;;;;10.95;7.53;;;15.60;99.90;;;;;;5073929;28;20123;-47
2022/08/26 04:01:34;;;;;;;14.75;7.65;;;15.60;99.90;;;;;;5073766;28;20044;-47
2022/08/26 04:04:02;;;;;;;10.43;6.85;;;15.50;99.90;;;;;;5073244;28;20049;-47
2022/08/26 04:06:47;;;;;;;13.93;7.75;;;15.50;99.90;;;;;;5084226;28;20052;-47
2022/08/26 04:09:19;;;;;;;11.43;7.15;;;15.60;99.90;;;;;;5091228;28;20043;-50
2022/08/26 04:11:47;;;;;;;13.05;7.55;;;15.60;99.90;;;;;;5091702;28;20032;-48
2022/08/26 04:14:19;;;;;;;11.77;7.82;;;15.60;99.90;;;;;;5087851;28;20088;-48
2022/08/26 04:16:46;;;;;;;15.88;8.50;;;15.60;99.90;;;;;;5091625;28;20061;-48
2022/08/26 04:19:14;;;;;;;11.45;7.93;;;15.60;99.90;;;;;;5090412;28;20625;-48
2022/08/26 04:21:41;;;;;;;11.05;7.55;;;15.60;99.90;;;;;;5090759;28;20032;-47
2022/08/26 04:24:09;;;;;;;;;;;15.60;99.90;;;;;;5090973;28;20492;-49
2022/08/26 04:26:38;;;;;;;12.63;7.95;;;15.60;99.90;;;;;;5091688;28;20413;-46
2022/08/26 04:29:16;;;;;;;12.20;8.13;;;15.70;99.90;;;;;;5090094;28;20044;-47
2022/08/26 04:31:44;;;;;;;14.77;8.70;;;15.70;99.90;;;;;;5089005;28;20054;-48
2022/08/26 04:34:24;;;;;;;13.23;8.38;;;15.70;99.90;;;;;;5090570;28;20126;-48
2022/08/26 04:36:55;;;;;;;15.80;8.70;;;15.70;99.90;;;;;;5089310;28;20074;-47
2022/08/26 04:39:22;;;;;;;11.80;8.45;;;15.70;99.90;;;;;;5086816;28;20048;-48
2022/08/26 04:41:51;;;;;;;13.27;8.48;;;15.70;99.90;;;;;;5084289;28;20047;-47
2022/08/26 04:44:21;;;;;;;13.23;7.93;;;15.70;99.90;;;;;;5073234;28;20044;-47
2022/08/26 04:46:47;;;;;;;12.60;7.82;;;15.70;99.90;;;;;;5072373;28;20048;-47
2022/08/26 04:49:14;;;;;;;14.60;7.70;;;15.70;99.90;;;;;;5071785;28;20041;-49
2022/08/26 04:51:41;;;;;;;12.93;7.53;;;15.70;99.90;;;;;;5072958;28;20508;-47
2022/08/26 04:54:09;;;;;;;13.85;7.93;;;15.70;99.90;;;;;;5081498;28;20050;-48
2022/08/26 04:56:37;;;;;;;;;;;15.70;99.90;;;;;;5090695;28;20036;-48
2022/08/26 04:59:07;;;;;;;11.98;7.55;;;15.70;99.90;;;;;;5092196;28;19920;-47
2022/08/26 05:01:49;;;;;;;12.30;8.07;;;15.80;99.90;;;;;;5079013;28;20040;-47
2022/08/26 05:04:17;;;;;;;12.02;8.30;;;15.80;99.90;;;;;;5071749;28;20052;-47
2022/08/26 05:06:45;;;;;;;11.18;7.88;;;15.80;99.90;;;;;;5071822;28;20044;-48
2022/08/26 05:09:13;;;;;;;10.10;7.43;;;15.80;99.90;;;;;;5088554;28;20377;-47
2022/08/26 05:11:41;;;;;;;16.77;8.05;;;15.70;99.90;;;;;;5090193;28;20562;-48
2022/08/26 05:14:08;;;;;;;14.65;8.27;;;15.70;99.90;;;;;;5074836;28;20507;-47
2022/08/26 05:16:35;;;;;;;;;;;15.70;99.90;;;;;;5072402;28;20043;-48
2022/08/26 05:19:03;;;;;;;15.35;8.05;;;15.70;99.90;;;;;;5072412;28;19950;-46
2022/08/26 05:21:30;;;;;;;12.80;8.10;;;15.80;99.90;;;;;;5080920;28;20040;-48
2022/08/26 05:23:57;;;;;;;12.48;8.07;;;15.80;99.90;;;;;;5064868;28;20271;-48
2022/08/26 05:26:26;;;;;;;12.38;7.07;;;15.90;99.90;;;;;;5077761;28;20051;-49
2022/08/26 05:28:55;;;;;;;15.55;8.23;;;16.00;99.90;;;;;;5070792;28;20074;-48
2022/08/26 05:31:27;;;;;;;12.15;8.48;;;16.00;99.90;;;;;;5069595;28;20052;-49
2022/08/26 05:33:56;;;;;;;14.73;8.57;;;16.20;99.90;;;;;;5071371;28;20123;-48
2022/08/26 05:36:26;;;;;;;14.50;9.15;;;16.40;99.90;;;;;;5074008;28;20467;-48
2022/08/26 05:38:55;;;;;;;14.45;8.85;;;16.50;99.90;;;;;;5080135;28;20036;-48
2022/08/26 05:41:27;;;;;;;19.55;8.80;;;16.60;99.90;;;;;;5078427;28;20045;-48
2022/08/26 05:44:04;;;;;;;14.65;8.75;;;16.70;99.90;;;;;;5085749;28;20044;-47
2022/08/26 05:46:32;;;;;;;17.40;9.20;;;16.80;99.90;;;;;;5079951;28;20044;-48
2022/08/26 05:49:00;;;;;;;13.20;8.45;;;16.90;99.90;;;;;;5070407;28;20416;-47
2022/08/26 05:51:27;;;;;;;15.38;8.25;;;17.00;99.90;;;;;;5071812;28;20045;-48
2022/08/26 05:53:57;;;;;;;18.10;9.82;;;17.00;99.90;;;;;;5074369;28;20444;-48
2022/08/26 05:56:26;;;;;;;12.75;9.18;;;17.00;99.90;;;;;;5069395;28;20041;-47
2022/08/26 05:58:54;;;;;;;16.38;9.25;;;17.00;99.90;;;;;;5070415;28;20047;-47
2022/08/26 06:01:26;;;;;;;15.40;8.48;;;17.10;99.90;;;;;;5071572;28;20041;-48
2022/08/26 06:03:58;;;;;;;13.15;9.02;;;17.20;99.90;;;;;;5070345;28;20048;-48
2022/08/26 06:06:33;;;;;;;14.80;9.43;;;17.30;99.90;;;;;;5071547;28;20082;-49
2022/08/26 06:09:02;;;;;;;15.80;8.30;;;17.40;99.90;;;;;;5070836;28;20049;-48
2022/08/26 06:11:31;;;;;;;16.92;8.07;;;17.50;99.90;;;;;;5071790;28;20525;-48
2022/08/26 06:14:01;;;;;;;14.57;7.28;;;17.60;99.90;;;;;;5070635;28;20041;-48
2022/08/26 06:16:33;;;;;;;12.38;8.55;;;17.70;99.90;;;;;;5074579;28;20427;-48
2022/08/26 06:19:02;;;;;;;13.13;8.27;;;17.80;99.90;;;;;;5073538;28;20048;-48
2022/08/26 06:21:38;;;;;;;13.02;8.05;;;18.00;99.90;;;;;;5071335;28;20554;-51
2022/08/26 06:27:00;;;;;;;16.00;7.40;;;18.30;99.90;;;;;;5077998;28;20047;-48
2022/08/26 06:29:29;;;;;;;13.68;7.95;;;18.40;99.90;;;;;;5090316;28;20055;-49
2022/08/26 06:31:56;;;;;;;11.55;8.02;;;18.50;99.90;;;;;;5091186;28;20432;-48
2022/08/26 06:34:27;;;;;;;11.27;7.63;;;18.60;99.90;;;;;;5078365;28;20064;-49
2022/08/26 06:36:58;;;;;;;12.15;7.72;;;18.50;99.90;;;;;;5086367;28;20054;-50
2022/08/26 06:39:25;;;;;;;14.55;8.30;;;18.40;99.90;;;;;;5087039;28;21385;-49
2022/08/26 06:41:51;;;;;;;15.20;8.98;;;18.40;99.90;;;;;;5071115;28;20107;-48
2022/08/26 06:44:19;;;;;;;13.48;8.85;;;18.40;99.90;;;;;;5087485;28;20048;-47
2022/08/26 06:46:46;;;;;;;17.45;8.45;;;18.40;99.90;;;;;;5091325;28;20510;-49
2022/08/26 06:49:16;;;;;;;12.45;7.78;;;18.40;99.90;;;;;;5087938;28;20136;-48
2022/08/26 06:51:46;;;;;;;13.75;7.47;;;18.50;99.90;;;;;;5070622;28;20048;-47
2022/08/26 06:54:14;;;;;;;10.52;8.30;;;18.60;99.90;;;;;;5079596;28;20044;-48
2022/08/26 06:56:42;;;;;;;11.52;8.23;;;18.70;99.90;;;;;;5077987;28;20032;-48
2022/08/26 06:59:10;;;;;;;14.50;8.38;;;18.80;99.90;;;;;;5070497;28;20040;-48
2022/08/26 07:01:43;;;;;;;10.20;7.22;;;19.00;99.90;;;;;;5069702;28;20040;-47
2022/08/26 07:04:13;;;;;;;15.50;9.00;;;19.20;99.90;;;;;;5069606;28;20352;-49
2022/08/26 07:06:45;;;;;;;10.90;8.13;;;19.30;99.90;;;;;;5070825;28;20117;-48
2022/08/26 07:09:12;;;;;;;12.57;7.78;;;19.50;99.90;;;;;;5070431;28;20067;-48
2022/08/26 07:11:40;;;;;;;14.75;8.40;;;19.60;99.90;;;;;;5070822;28;20044;-51
2022/08/26 07:14:06;;;;;;;14.80;8.77;;;19.70;99.90;;;;;;5070248;28;20040;-51
2022/08/26 07:16:33;;;;;;;12.95;7.65;;;19.70;99.90;;;;;;5078404;28;20040;-49
2022/08/26 07:19:02;;;;;;;12.73;7.50;;;19.80;99.90;;;;;;5070477;28;20045;-51
2022/08/26 07:21:40;;;;;;;13.55;8.52;;;19.90;99.90;;;;;;5070680;28;20036;-49
2022/08/26 07:24:08;;;;;;;12.05;7.90;;;19.90;99.90;;;;;;5069811;28;20036;-49
2022/08/26 07:26:37;;;;;;;12.00;7.55;;;19.80;99.90;;;;;;5074844;28;20437;-51
2022/08/26 07:29:05;;;;;;;17.00;7.97;;;19.80;99.90;;;;;;5090237;28;20458;-51
2022/08/26 07:31:34;;;;;;;11.88;8.57;;;19.80;99.90;;;;;;5090832;28;20488;-49
2022/08/26 07:34:09;;;;;;;13.18;7.72;;;19.70;99.90;;;;;;5078421;28;20056;-51
2022/08/26 07:36:36;;;;;;;14.63;8.55;;;19.70;99.90;;;;;;5084664;28;20036;-48
2022/08/26 07:39:03;;;;;;;9.95;8.07;;;19.80;99.90;;;;;;5078481;28;20234;-48
2022/08/26 07:41:29;;;;;;;11.23;7.82;;;20.10;99.90;;;;;;5069764;28;20036;-49
2022/08/26 07:43:58;;;;;;;11.07;7.72;;;20.40;99.90;;;;;;5070020;28;20049;-48
2022/08/26 07:46:24;;;;;;;13.18;7.80;;;20.60;99.90;;;;;;5051676;28;20090;-50
2022/08/26 07:48:56;;;;;;;11.98;7.53;;;20.90;99.90;;;;;;5072616;28;20588;-48
2022/08/26 07:51:23;;;;;;;15.30;7.88;;;21.30;99.90;;;;;;5074050;28;20052;-47
2022/08/26 07:53:51;;;;;;;10.60;7.47;;;21.40;99.90;;;;;;5073376;28;20041;-47
2022/08/26 07:56:21;;;;;;;10.57;7.15;;;21.70;99.90;;;;;;5073731;28;20046;-47
2022/08/26 07:58:50;;;;;;;10.02;7.60;;;21.80;99.90;;;;;;5078540;28;20127;-47
2022/08/26 08:01:19;;;;;;;9.35;6.68;;;21.80;99.90;;;;;;5083353;28;20040;-48
2022/08/26 08:03:47;;;;;;;11.00;6.97;;;21.90;99.90;;;;;;5073262;28;20062;-46
2022/08/26 08:06:21;;;;;;;12.00;7.63;;;22.20;99.90;;;;;;5077979;28;20127;-48
2022/08/26 08:08:52;;;;;;;8.63;6.97;;;22.30;99.90;;;;;;5079679;28;20036;-47
2022/08/26 08:11:20;;;;;;;;;;;22.50;99.90;;;;;;5083898;28;20048;-48
2022/08/26 08:13:48;;;;;;;14.40;7.22;;;22.80;99.90;;;;;;5092187;28;19999;-49
2022/08/26 08:16:23;;;;;;;8.15;7.13;;;22.90;99.90;;;;;;5093444;28;20154;-47
2022/08/26 08:18:50;;;;;;;8.90;6.60;;;23.10;99.90;;;;;;5092508;28;20044;-47
2022/08/26 08:21:16;;;;;;;8.48;6.78;;;23.20;99.90;;;;;;5085849;28;20404;-48
2022/08/26 08:23:50;;;;;;;8.25;7.15;;;23.30;99.90;;;;;;5072645;28;20550;-47
2022/08/26 08:26:17;;;;;;;11.13;6.75;;;23.50;99.90;;;;;;5073387;28;20055;-50
2022/08/26 08:28:45;;;;;;;9.90;6.72;;;23.70;99.90;;;;;;5092582;28;20044;-47
2022/08/26 08:31:26;;;;;;;8.30;6.68;;;23.80;99.90;;;;;;5093438;28;20051;-47
2022/08/26 08:34:14;;;;;;;9.38;6.35;;;23.60;99.90;;;;;;5076740;28;20121;-48
2022/08/26 08:36:40;;;;;;;11.70;6.60;;;24.00;99.90;;;;;;5072220;28;20629;-47
2022/08/26 08:39:08;;;;;;;8.85;7.05;;;24.10;99.90;;;;;;5072257;28;20047;-47
2022/08/26 08:42:06;;;;;;;12.40;6.93;;;24.30;99.90;;;;;;5072619;28;20079;-47
2022/08/26 08:44:38;;;;;;;8.50;6.43;;;24.30;99.90;;;;;;5072750;28;20036;-49
2022/08/26 08:47:19;;;;;;;9.85;6.10;;;24.50;99.90;;;;;;5072279;28;20048;-47
2022/08/26 08:49:46;;;;;;;9.48;6.47;;;24.30;99.90;;;;;;5072537;28;20508;-47
2022/08/26 08:52:26;;;;;;;9.48;6.93;;;24.30;99.90;;;;;;5074430;28;20044;-47
2022/08/26 08:54:54;;;;;;;9.35;6.28;;;24.30;99.90;;;;;;5091945;28;20040;-47
2022/08/26 08:57:31;;;;;;;9.45;7.00;;;24.50;99.90;;;;;;5083234;28;20082;-47
2022/08/26 09:00:07;;;;;;;8.63;6.90;;;24.40;99.90;;;;;;5072724;28;20032;-47
2022/08/26 09:02:49;;;;;;;10.25;6.30;;;24.40;99.90;;;;;;5071395;28;20047;-47
2022/08/26 09:05:38;;;;;;;7.00;5.68;;;24.40;99.90;;;;;;5071956;28;20071;-48
2022/08/26 09:08:20;;;;;;;8.50;5.95;;;24.40;99.90;;;;;;5072411;28;20040;-47
2022/08/26 09:10:51;;;;;;;9.20;6.07;;;24.60;99.90;;;;;;5071532;28;20044;-47
2022/08/26 09:13:20;;;;;;;8.05;6.10;;;24.70;99.90;;;;;;5072920;28;20116;-47
2022/08/26 09:15:52;;;;;;;9.77;5.97;;;24.80;99.90;;;;;;5080456;28;20036;-47
2022/08/26 09:18:34;;;;;;;9.18;5.63;;;24.90;99.90;;;;;;5079180;28;20049;-47
2022/08/26 09:21:03;;;;;;;6.80;6.07;;;25.00;99.90;;;;;;5072015;28;20041;-47
2022/08/26 09:23:33;;;;;;;7.30;5.65;;;24.90;99.90;;;;;;5071537;28;20036;-47
2022/08/26 09:26:32;;;;;;;9.13;5.78;;;24.80;99.90;;;;;;5072203;28;20079;-47
2022/08/26 09:29:03;;;;;;;7.05;6.28;;;25.00;99.90;;;;;;5057693;28;20072;-47
2022/08/26 09:31:35;;;;;;;6.93;6.22;;;25.00;99.90;;;;;;5071823;28;20075;-47
2022/08/26 09:34:24;;;;;;;9.15;5.78;;;25.10;99.90;;;;;;5078443;28;20488;-48
2022/08/26 09:36:56;;;;;;;10.30;5.88;;;25.20;99.90;;;;;;5083550;28;20381;-48
2022/08/26 09:39:33;;;;;;;11.57;6.65;;;25.40;99.90;;;;;;5105148;22;20048;-47
2022/08/26 09:42:10;;;;;;;11.68;5.80;;;25.50;99.90;;;;;;5086816;28;20048;-45
2022/08/26 09:44:58;;;;;;;6.07;5.38;;;25.70;99.90;;;;;;5083972;28;20044;-46
2022/08/26 09:47:29;;;;;;;6.85;5.93;;;25.80;99.90;;;;;;5091361;28;20629;-46
2022/08/26 09:50:22;;;;;;;11.70;7.32;;;25.90;99.90;;;;;;5091598;28;20043;-45
2022/08/26 09:53:16;;;;;;;8.45;6.22;;;25.80;99.90;;;;;;5044462;28;20055;-45
2022/08/26 09:55:49;;;;;;;10.57;6.93;;;26.00;99.90;;;;;;5091586;28;20040;-45
2022/08/26 09:58:35;;;;;;;8.40;7.10;;;25.60;99.90;;;;;;5084565;28;20451;-46
2022/08/26 10:01:07;;;;;;;7.85;6.68;;;25.80;99.90;;;;;;5073502;28;20461;-46
2022/08/26 10:03:36;;;;;;;10.15;6.35;;;25.90;99.90;;;;;;5090491;28;20516;-46
2022/08/26 10:06:22;;;;;;;7.57;6.32;;;25.90;99.90;;;;;;5091238;28;20048;-45
2022/08/26 10:08:57;;;;;;;7.45;6.10;;;25.80;99.90;;;;;;5080866;28;20043;-46
2022/08/26 10:11:49;;;;;;;9.55;6.60;;;25.90;99.90;;;;;;5090689;28;20557;-45
2022/08/26 10:14:20;;;;;;;10.10;6.57;;;25.90;99.90;;;;;;5090198;28;20048;-45
2022/08/26 10:17:01;;;;;;;7.30;6.05;;;25.90;99.90;;;;;;5086066;28;20048;-45
2022/08/26 10:19:39;;;;;;;9.13;5.95;;;26.00;99.90;;;;;;5089983;28;20492;-45
2022/08/26 10:23:13;;;;;;;8.85;5.90;;;26.00;99.90;;;;;;5091121;28;20036;-45
2022/08/26 10:25:46;;;;;;;7.88;6.82;;;26.10;99.90;;;;;;5060017;28;20052;-46
2022/08/26 10:28:30;;;;;;;7.93;5.88;;;26.10;99.90;;;;;;5108123;28;20130;-48
2022/08/26 10:31:16;;;;;;;7.18;5.57;;;26.40;99.90;;;;;;5108766;28;20046;-46
2022/08/26 10:33:45;;;;;;;6.78;5.82;;;26.50;99.90;;;;;;5083453;28;20040;-45
2022/08/26 10:39:34;;;;;;;6.88;5.60;;;26.80;99.90;;;;;;5111448;28;20089;-45
2022/08/26 10:42:14;;;;;;;6.55;5.95;;;26.90;99.90;;;;;;5095129;28;20040;-45
2022/08/26 10:44:43;;;;;;;7.30;5.63;;;26.80;99.90;;;;;;5090943;28;20048;-45
2022/08/26 10:47:34;;;;;;;8.05;5.53;;;26.50;99.90;;;;;;5090808;28;20048;-46
2022/08/26 10:50:02;;;;;;;7.82;5.32;;;26.30;99.90;;;;;;5086423;28;20063;-45
2022/08/26 10:52:50;;;;;;;6.45;5.40;;;26.40;99.90;;;;;;5090627;28;20500;-45
2022/08/26 10:55:22;;;;;;;7.68;5.88;;;26.60;99.90;;;;;;5090169;28;20488;-46
2022/08/26 10:58:23;;;;;;;6.75;5.75;;;26.80;99.90;;;;;;5086558;28;20055;-46
2022/08/26 11:04:03;;;;;;;12.90;5.60;;;27.00;99.90;;;;;;5072427;28;20454;-45
2022/08/26 11:06:30;;;;;;;6.85;6.15;;;26.90;99.90;;;;;;5086059;28;20411;-46
2022/08/26 11:09:00;;;;;;;9.93;5.22;;;27.00;99.90;;;;;;5087865;28;20040;-45
2022/08/26 11:11:39;;;;;;;8.68;6.38;;;27.20;99.90;;;;;;5081001;28;20048;-47
2022/08/26 11:14:29;;;;;;;7.63;5.32;;;27.10;99.90;;;;;;5090807;28;20044;-45
2022/08/26 11:17:10;;;;;;;8.98;5.60;;;27.10;99.90;;;;;;5083842;28;20054;-46
2022/08/26 11:19:38;;;;;;;7.00;5.15;;;27.00;99.90;;;;;;5082969;28;20043;-46
2022/08/26 11:22:27;;;;;;;7.43;4.53;;;27.00;99.90;;;;;;5084115;28;20044;-47
2022/08/26 11:24:54;;;;;;;7.65;4.82;;;27.00;99.90;;;;;;5087900;28;20098;-47
2022/08/26 11:27:27;;;;;;;7.28;5.00;;;27.00;99.90;;;;;;5091053;28;20408;-47
2022/08/26 11:29:56;;;;;;;6.88;4.90;;;27.20;99.90;;;;;;5082992;28;20052;-46
2022/08/26 11:32:43;;;;;;;8.98;4.75;;;27.30;99.90;;;;;;5082924;28;20068;-46
2022/08/26 11:35:18;;;;;;;6.70;4.80;;;27.40;99.90;;;;;;5084590;28;20063;-47
2022/08/26 11:37:56;;;;;;;5.88;5.38;;;27.40;99.90;;;;;;5094496;28;20040;-46
2022/08/26 11:40:32;;;;;;;10.40;5.07;;;27.50;99.90;;;;;;5094504;28;20040;-46
2022/08/26 11:43:17;;;;;;;6.63;5.15;;;27.60;99.90;;;;;;5092543;28;20032;-46
2022/08/26 11:45:58;;;;;;;9.65;4.90;;;27.50;99.90;;;;;;5075207;28;20059;-47
2022/08/26 11:48:33;;;;;;;11.77;5.63;;;27.80;99.90;;;;;;5094496;28;20063;-46
2022/08/26 11:51:02;;;;;;;6.13;4.85;;;27.90;99.90;;;;;;5090085;28;20032;-46
2022/08/26 11:53:32;;;;;;;6.78;5.28;;;27.80;99.90;;;;;;5094103;28;20499;-46
2022/08/26 11:56:02;;;;;;;7.07;5.13;;;27.70;99.90;;;;;;5093868;28;20047;-46
2022/08/26 11:58:30;;;;;;;6.63;4.45;;;27.80;99.90;;;;;;5094229;28;20056;-46
2022/08/26 12:01:05;;;;;;;6.32;5.05;;;27.80;99.90;;;;;;5089707;28;20032;-49
2022/08/26 12:03:47;;;;;;;5.63;5.05;;;27.80;99.90;;;;;;5091160;28;20090;-47
2022/08/26 12:06:28;;;;;;;5.40;4.88;;;27.60;99.90;;;;;;5085727;28;20051;-46
2022/08/26 12:09:00;;;;;;;7.25;4.75;;;27.70;99.90;;;;;;5081485;28;20040;-46
2022/08/26 12:11:31;;;;;;;6.60;4.78;;;27.60;99.90;;;;;;5103705;28;20097;-46
2022/08/26 12:14:01;;;;;;;6.97;4.88;;;27.50;99.90;;;;;;5104122;28;20535;-46
2022/08/26 12:16:31;;;;;;;6.20;4.78;;;27.60;99.90;;;;;;5094885;28;20420;-46
2022/08/26 12:18:58;;;;;;;8.43;4.78;;;27.70;99.90;;;;;;5108906;28;20075;-46
2022/08/26 12:21:29;;;;;;;8.30;4.80;;;27.70;99.90;;;;;;5113484;28;20042;-46
2022/08/26 12:24:02;;;;;;;7.10;4.70;;;27.60;99.90;;;;;;5092054;28;20520;-46
2022/08/26 12:26:33;;;;;;;8.73;5.03;;;27.60;99.90;;;;;;5092989;28;20069;-48
2022/08/26 12:29:33;;;;;;;7.88;4.80;;;27.60;99.90;;;;;;5093235;28;20039;-46
2022/08/26 12:32:12;;;;;;;5.50;4.93;;;27.80;99.90;;;;;;5092815;28;20055;-46
2022/08/26 12:34:40;;;;;;;11.90;5.13;;;28.00;99.90;;;;;;5084616;28;20047;-46
2022/08/26 12:37:11;;;;;;;5.22;4.70;;;28.00;99.90;;;;;;5092415;28;20039;-47
2022/08/26 12:39:40;;;;;;;5.82;4.40;;;28.00;99.90;;;;;;5092796;28;20044;-46
2022/08/26 12:42:16;;;;;;;5.82;5.22;;;28.00;99.90;;;;;;5091559;28;20182;-46
2022/08/26 12:44:49;;;;;;;7.05;4.97;;;28.00;99.90;;;;;;5092762;28;20044;-46
2022/08/26 12:47:29;;;;;;;9.05;4.95;;;28.10;99.90;;;;;;5092302;28;20032;-46
2022/08/26 12:50:21;;;;;;;7.35;4.68;;;28.30;99.90;;;;;;5088921;28;20090;-46
2022/08/26 12:53:07;;;;;;;6.60;5.13;;;28.40;99.90;;;;;;5094679;28;20393;-49
2022/08/26 12:55:46;;;;;;;8.50;4.70;;;28.30;99.90;;;;;;5092510;28;20048;-46
2022/08/26 12:58:22;;;;;;;7.47;5.38;;;28.20;99.90;;;;;;5092820;28;20450;-46
2022/08/26 13:00:51;;;;;;;7.45;5.13;;;28.10;99.90;;;;;;5087441;28;20047;-46
2022/08/26 13:03:33;;;;;;;6.03;5.00;;;28.20;99.90;;;;;;5092126;28;20135;-46
2022/08/26 13:06:25;;;;;;;9.13;5.22;;;28.10;99.90;;;;;;5092601;28;20348;-46
2022/08/26 13:08:54;;;;;;;7.38;5.70;;;28.10;99.90;;;;;;5095067;28;20048;-46
2022/08/26 13:11:25;;;;;;;8.07;5.65;;;28.00;99.90;;;;;;5092518;28;20450;-46
2022/08/26 13:14:05;;;;;;;6.45;4.85;;;28.00;99.90;;;;;;5091768;28;20048;-46
2022/08/26 13:16:34;;;;;;;8.77;4.47;;;28.10;99.90;;;;;;5092134;28;20063;-48
2022/08/26 13:19:04;;;;;;;9.40;5.03;;;28.20;99.90;;;;;;5091540;28;20051;-46
2022/08/26 13:21:34;;;;;;;10.73;4.85;;;28.40;99.90;;;;;;5092293;28;20044;-46